sensor_id;sensor_type;location;lat;lon;timestamp;temperature;humidity
18339;DHT22;9295;44.484;11.240;2023-03-03T00:00:35;6.60;99.90
18339;DHT22;9295;44.484;11.240;2023-03-03T00:03:05;6.60;99.90
18339;DHT22;9295;44.484;11.240;2023-03-03T00:05:35;6.60;99.90
18339;DHT22;9295;44.484;11.240;2023-03-03T00:08:06;6.60;99.90
18339;DHT22;9295;44.484;11.240;2023-03-03T00:10:34;6.60;99.90
18339;DHT22;9295;44.484;11.240;2023-03-03T00:13:03;6.60;99.90
18339;DHT22;9295;44.484;11.240;2023-03-03T00:15:31;6.60;99.90
18339;DHT22;9295;44.484;11.240;2023-03-03T00:18:00;6.60;99.90
18339;DHT22;9295;44.484;11.240;2023-03-03T00:20:34;6.60;99.90
18339;DHT22;9295;44.484;11.240;2023-03-03T00:23:15;6.60;99.90
18339;DHT22;9295;44.484;11.240;2023-03-03T00:25:45;6.60;99.90
18339;DHT22;9295;44.484;11.240;2023-03-03T00:28:23;6.60;99.90
18339;DHT22;9295;44.484;11.240;2023-03-03T00:30:54;6.60;99.90
18339;DHT22;9295;44.484;11.240;2023-03-03T00:33:26;6.60;99.90
18339;DHT22;9295;44.484;11.240;2023-03-03T00:35:55;6.60;99.90
18339;DHT22;9295;44.484;11.240;2023-03-03T00:38:26;6.70;99.90
18339;DHT22;9295;44.484;11.240;2023-03-03T00:40:54;6.70;99.90
18339;DHT22;9295;44.484;11.240;2023-03-03T00:43:24;6.70;99.90
18339;DHT22;9295;44.484;11.240;2023-03-03T00:45:55;6.80;99.90
18339;DHT22;9295;44.484;11.240;2023-03-03T00:48:25;6.80;99.90
18339;DHT22;9295;44.484;11.240;2023-03-03T00:50:55;6.80;99.90
18339;DHT22;9295;44.484;11.240;2023-03-03T00:53:27;6.80;99.90
18339;DHT22;9295;44.484;11.240;2023-03-03T00:55:56;6.90;99.90
18339;DHT22;9295;44.484;11.240;2023-03-03T00:58:25;6.90;99.90
18339;DHT22;9295;44.484;11.240;2023-03-03T01:00:55;6.90;99.90
18339;DHT22;9295;44.484;11.240;2023-03-03T01:03:34;6.90;99.90
18339;DHT22;9295;44.484;11.240;2023-03-03T01:06:04;6.90;99.90
18339;DHT22;9295;44.484;11.240;2023-03-03T01:08:34;6.80;99.90
18339;DHT22;9295;44.484;11.240;2023-03-03T01:11:05;6.80;99.90
18339;DHT22;9295;44.484;11.240;2023-03-03T01:13:35;6.90;99.90
18339;DHT22;9295;44.484;11.240;2023-03-03T01:16:05;6.80;99.90
18339;DHT22;9295;44.484;11.240;2023-03-03T01:18:34;6.80;99.90
18339;DHT22;9295;44.484;11.240;2023-03-03T01:21:03;6.80;99.90
18339;DHT22;9295;44.484;11.240;2023-03-03T01:23:33;6.80;99.90
18339;DHT22;9295;44.484;11.240;2023-03-03T01:26:03;6.80;99.90
18339;DHT22;9295;44.484;11.240;2023-03-03T01:28:32;6.80;99.90
18339;DHT22;9295;44.484;11.240;2023-03-03T01:31:01;6.80;99.90
18339;DHT22;9295;44.484;11.240;2023-03-03T01:33:31;6.80;99.90
18339;DHT22;9295;44.484;11.240;2023-03-03T01:36:00;6.80;99.90
18339;DHT22;9295;44.484;11.240;2023-03-03T01:38:29;6.80;99.90
18339;DHT22;9295;44.484;11.240;2023-03-03T01:40:59;6.80;99.90
18339;DHT22;9295;44.484;11.240;2023-03-03T01:43:28;6.80;99.90
18339;DHT22;9295;44.484;11.240;2023-03-03T01:49:05;6.80;99.90
18339;DHT22;9295;44.484;11.240;2023-03-03T01:51:38;6.70;99.90
18339;DHT22;9295;44.484;11.240;2023-03-03T01:54:13;6.70;99.90
18339;DHT22;9295;44.484;11.240;2023-03-03T01:56:44;6.70;99.90
18339;DHT22;9295;44.484;11.240;2023-03-03T01:59:16;6.70;99.90
18339;DHT22;9295;44.484;11.240;2023-03-03T02:01:46;6.70;99.90
18339;DHT22;9295;44.484;11.240;2023-03-03T02:04:15;6.70;99.90
18339;DHT22;9295;44.484;11.240;2023-03-03T02:06:47;6.70;99.90
18339;DHT22;9295;44.484;11.240;2023-03-03T02:09:22;6.70;99.90
18339;DHT22;9295;44.484;11.240;2023-03-03T02:11:58;6.70;99.90
18339;DHT22;9295;44.484;11.240;2023-03-03T02:14:28;6.70;99.90
18339;DHT22;9295;44.484;11.240;2023-03-03T02:16:57;6.70;99.90
18339;DHT22;9295;44.484;11.240;2023-03-03T02:19:34;6.70;99.90
18339;DHT22;9295;44.484;11.240;2023-03-03T02:22:05;6.70;99.90
18339;DHT22;9295;44.484;11.240;2023-03-03T02:24:38;6.70;99.90
18339;DHT22;9295;44.484;11.240;2023-03-03T02:27:10;6.70;99.90
18339;DHT22;9295;44.484;11.240;2023-03-03T02:29:41;6.70;99.90
18339;DHT22;9295;44.484;11.240;2023-03-03T02:32:10;6.70;99.90
18339;DHT22;9295;44.484;11.240;2023-03-03T02:34:46;6.70;99.90
18339;DHT22;9295;44.484;11.240;2023-03-03T02:37:15;6.70;99.90
18339;DHT22;9295;44.484;11.240;2023-03-03T02:39:44;6.80;99.90
18339;DHT22;9295;44.484;11.240;2023-03-03T02:42:20;6.70;99.90
18339;DHT22;9295;44.484;11.240;2023-03-03T02:44:53;6.80;99.90
18339;DHT22;9295;44.484;11.240;2023-03-03T02:47:22;6.80;99.90
18339;DHT22;9295;44.484;11.240;2023-03-03T02:49:51;6.80;99.90
18339;DHT22;9295;44.484;11.240;2023-03-03T02:52:20;6.70;99.90
18339;DHT22;9295;44.484;11.240;2023-03-03T02:54:48;6.70;99.90
18339;DHT22;9295;44.484;11.240;2023-03-03T02:57:18;6.70;99.90
18339;DHT22;9295;44.484;11.240;2023-03-03T02:59:47;6.60;99.90
18339;DHT22;9295;44.484;11.240;2023-03-03T03:02:17;6.60;99.90
18339;DHT22;9295;44.484;11.240;2023-03-03T03:04:46;6.60;99.90
18339;DHT22;9295;44.484;11.240;2023-03-03T03:07:20;6.50;99.90
18339;DHT22;9295;44.484;11.240;2023-03-03T03:09:48;6.50;99.90
18339;DHT22;9295;44.484;11.240;2023-03-03T03:12:18;6.50;99.90
18339;DHT22;9295;44.484;11.240;2023-03-03T03:14:50;6.60;99.90
18339;DHT22;9295;44.484;11.240;2023-03-03T03:17:19;6.60;99.90
18339;DHT22;9295;44.484;11.240;2023-03-03T03:19:49;6.50;99.90
18339;DHT22;9295;44.484;11.240;2023-03-03T03:22:18;6.60;99.90
18339;DHT22;9295;44.484;11.240;2023-03-03T03:24:47;6.60;99.90
18339;DHT22;9295;44.484;11.240;2023-03-03T03:27:15;6.60;99.90
18339;DHT22;9295;44.484;11.240;2023-03-03T03:29:48;6.60;99.90
18339;DHT22;9295;44.484;11.240;2023-03-03T03:32:17;6.50;99.90
18339;DHT22;9295;44.484;11.240;2023-03-03T03:34:46;6.50;99.90
18339;DHT22;9295;44.484;11.240;2023-03-03T03:37:15;6.50;99.90
18339;DHT22;9295;44.484;11.240;2023-03-03T03:39:45;6.60;99.90
18339;DHT22;9295;44.484;11.240;2023-03-03T03:42:14;6.60;99.90
18339;DHT22;9295;44.484;11.240;2023-03-03T03:44:42;6.60;99.90
18339;DHT22;9295;44.484;11.240;2023-03-03T03:47:12;6.60;99.90
18339;DHT22;9295;44.484;11.240;2023-03-03T03:49:41;6.60;99.90
18339;DHT22;9295;44.484;11.240;2023-03-03T03:52:11;6.60;99.90
18339;DHT22;9295;44.484;11.240;2023-03-03T03:54:40;6.60;99.90
18339;DHT22;9295;44.484;11.240;2023-03-03T03:57:08;6.60;99.90
18339;DHT22;9295;44.484;11.240;2023-03-03T03:59:37;6.70;99.90
18339;DHT22;9295;44.484;11.240;2023-03-03T04:02:06;6.70;99.90
18339;DHT22;9295;44.484;11.240;2023-03-03T04:04:36;6.70;99.90
18339;DHT22;9295;44.484;11.240;2023-03-03T04:07:05;6.70;99.90
18339;DHT22;9295;44.484;11.240;2023-03-03T04:09:36;6.70;99.90
18339;DHT22;9295;44.484;11.240;2023-03-03T04:12:06;6.70;99.90
18339;DHT22;9295;44.484;11.240;2023-03-03T04:14:35;6.70;99.90
18339;DHT22;9295;44.484;11.240;2023-03-03T04:17:04;6.60;99.90
18339;DHT22;9295;44.484;11.240;2023-03-03T04:19:32;6.60;99.90
18339;DHT22;9295;44.484;11.240;2023-03-03T04:22:02;6.60;99.90
18339;DHT22;9295;44.484;11.240;2023-03-03T04:24:33;6.60;99.90
18339;DHT22;9295;44.484;11.240;2023-03-03T04:27:03;6.60;99.90
18339;DHT22;9295;44.484;11.240;2023-03-03T04:29:33;6.60;99.90
18339;DHT22;9295;44.484;11.240;2023-03-03T04:32:01;6.60;99.90
18339;DHT22;9295;44.484;11.240;2023-03-03T04:34:31;6.50;99.90
18339;DHT22;9295;44.484;11.240;2023-03-03T04:37:02;6.40;99.90
18339;DHT22;9295;44.484;11.240;2023-03-03T04:39:31;6.40;99.90
18339;DHT22;9295;44.484;11.240;2023-03-03T04:42:00;6.40;99.90
18339;DHT22;9295;44.484;11.240;2023-03-03T04:44:29;6.30;99.90
18339;DHT22;9295;44.484;11.240;2023-03-03T04:46:58;6.20;99.90
18339;DHT22;9295;44.484;11.240;2023-03-03T04:49:27;6.20;99.90
18339;DHT22;9295;44.484;11.240;2023-03-03T04:51:57;6.20;99.90
18339;DHT22;9295;44.484;11.240;2023-03-03T04:54:26;6.10;99.90
18339;DHT22;9295;44.484;11.240;2023-03-03T04:56:55;6.00;99.90
18339;DHT22;9295;44.484;11.240;2023-03-03T04:59:24;6.00;99.90
18339;DHT22;9295;44.484;11.240;2023-03-03T05:01:53;5.90;99.90
18339;DHT22;9295;44.484;11.240;2023-03-03T05:04:21;6.00;99.90
18339;DHT22;9295;44.484;11.240;2023-03-03T05:06:50;5.90;99.90
18339;DHT22;9295;44.484;11.240;2023-03-03T05:09:18;5.90;99.90
18339;DHT22;9295;44.484;11.240;2023-03-03T05:11:48;5.90;99.90
18339;DHT22;9295;44.484;11.240;2023-03-03T05:14:17;5.90;99.90
18339;DHT22;9295;44.484;11.240;2023-03-03T05:16:46;5.80;99.90
18339;DHT22;9295;44.484;11.240;2023-03-03T05:19:15;5.80;99.90
18339;DHT22;9295;44.484;11.240;2023-03-03T05:21:44;5.70;99.90
18339;DHT22;9295;44.484;11.240;2023-03-03T05:24:13;5.70;99.90
18339;DHT22;9295;44.484;11.240;2023-03-03T05:26:41;5.70;99.90
18339;DHT22;9295;44.484;11.240;2023-03-03T05:29:11;5.60;99.90
18339;DHT22;9295;44.484;11.240;2023-03-03T05:31:40;5.60;99.90
18339;DHT22;9295;44.484;11.240;2023-03-03T05:34:11;5.60;99.90
18339;DHT22;9295;44.484;11.240;2023-03-03T05:36:40;5.60;99.90
18339;DHT22;9295;44.484;11.240;2023-03-03T05:39:08;5.60;99.90
18339;DHT22;9295;44.484;11.240;2023-03-03T05:41:37;5.60;99.90
18339;DHT22;9295;44.484;11.240;2023-03-03T05:44:06;5.50;99.90
18339;DHT22;9295;44.484;11.240;2023-03-03T05:46:36;5.50;99.90
18339;DHT22;9295;44.484;11.240;2023-03-03T05:49:05;5.60;99.90
18339;DHT22;9295;44.484;11.240;2023-03-03T05:51:33;5.50;99.90
18339;DHT22;9295;44.484;11.240;2023-03-03T05:54:02;5.50;99.90
18339;DHT22;9295;44.484;11.240;2023-03-03T05:56:30;5.50;99.90
18339;DHT22;9295;44.484;11.240;2023-03-03T05:58:59;5.50;99.90
18339;DHT22;9295;44.484;11.240;2023-03-03T06:01:27;5.60;99.90
18339;DHT22;9295;44.484;11.240;2023-03-03T06:03:57;5.60;99.90
18339;DHT22;9295;44.484;11.240;2023-03-03T06:06:26;5.50;99.90
18339;DHT22;9295;44.484;11.240;2023-03-03T06:08:55;5.60;99.90
18339;DHT22;9295;44.484;11.240;2023-03-03T06:11:23;5.60;99.90
18339;DHT22;9295;44.484;11.240;2023-03-03T06:13:52;5.60;99.90
18339;DHT22;9295;44.484;11.240;2023-03-03T06:16:20;5.60;99.90
18339;DHT22;9295;44.484;11.240;2023-03-03T06:18:49;5.70;99.90
18339;DHT22;9295;44.484;11.240;2023-03-03T06:21:19;5.70;99.90
18339;DHT22;9295;44.484;11.240;2023-03-03T06:23:47;5.80;99.90
18339;DHT22;9295;44.484;11.240;2023-03-03T06:26:16;5.80;99.90
18339;DHT22;9295;44.484;11.240;2023-03-03T06:28:44;5.90;99.90
18339;DHT22;9295;44.484;11.240;2023-03-03T06:31:14;5.90;99.90
18339;DHT22;9295;44.484;11.240;2023-03-03T06:33:42;5.90;99.90
18339;DHT22;9295;44.484;11.240;2023-03-03T06:36:11;6.00;99.90
18339;DHT22;9295;44.484;11.240;2023-03-03T06:38:41;6.10;99.90
18339;DHT22;9295;44.484;11.240;2023-03-03T06:41:09;6.10;99.90
18339;DHT22;9295;44.484;11.240;2023-03-03T06:43:38;6.10;99.90
18339;DHT22;9295;44.484;11.240;2023-03-03T06:46:07;6.20;99.90
18339;DHT22;9295;44.484;11.240;2023-03-03T06:48:35;6.30;99.90
18339;DHT22;9295;44.484;11.240;2023-03-03T06:51:22;6.40;99.90
18339;DHT22;9295;44.484;11.240;2023-03-03T06:53:56;6.50;99.90
18339;DHT22;9295;44.484;11.240;2023-03-03T06:56:25;6.70;99.90
18339;DHT22;9295;44.484;11.240;2023-03-03T06:58:55;6.70;99.90
18339;DHT22;9295;44.484;11.240;2023-03-03T07:01:24;6.80;99.90
18339;DHT22;9295;44.484;11.240;2023-03-03T07:03:54;6.90;99.90
18339;DHT22;9295;44.484;11.240;2023-03-03T07:06:24;7.00;99.90
18339;DHT22;9295;44.484;11.240;2023-03-03T07:08:55;7.00;99.90
18339;DHT22;9295;44.484;11.240;2023-03-03T07:11:24;7.20;99.90
18339;DHT22;9295;44.484;11.240;2023-03-03T07:13:53;7.30;99.90
18339;DHT22;9295;44.484;11.240;2023-03-03T07:16:24;7.40;99.90
18339;DHT22;9295;44.484;11.240;2023-03-03T07:18:55;7.50;99.90
18339;DHT22;9295;44.484;11.240;2023-03-03T07:21:29;7.60;99.90
18339;DHT22;9295;44.484;11.240;2023-03-03T07:24:15;7.60;99.90
18339;DHT22;9295;44.484;11.240;2023-03-03T07:26:46;7.70;99.90
18339;DHT22;9295;44.484;11.240;2023-03-03T07:29:21;7.70;99.90
18339;DHT22;9295;44.484;11.240;2023-03-03T07:31:51;7.70;99.90
18339;DHT22;9295;44.484;11.240;2023-03-03T07:34:22;7.80;99.90
18339;DHT22;9295;44.484;11.240;2023-03-03T07:36:54;7.80;99.90
18339;DHT22;9295;44.484;11.240;2023-03-03T07:39:32;7.90;99.90
18339;DHT22;9295;44.484;11.240;2023-03-03T07:42:21;8.00;99.90
18339;DHT22;9295;44.484;11.240;2023-03-03T07:45:24;8.10;99.90
18339;DHT22;9295;44.484;11.240;2023-03-03T07:47:59;8.20;99.90
18339;DHT22;9295;44.484;11.240;2023-03-03T07:50:29;8.30;99.90
18339;DHT22;9295;44.484;11.240;2023-03-03T07:52:58;8.60;99.90
18339;DHT22;9295;44.484;11.240;2023-03-03T07:55:33;8.70;99.90
18339;DHT22;9295;44.484;11.240;2023-03-03T07:58:22;8.90;99.90
18339;DHT22;9295;44.484;11.240;2023-03-03T08:03:52;9.20;99.90
18339;DHT22;9295;44.484;11.240;2023-03-03T08:06:36;9.40;99.90
18339;DHT22;9295;44.484;11.240;2023-03-03T08:09:35;9.50;99.90
18339;DHT22;9295;44.484;11.240;2023-03-03T08:12:30;9.60;99.90
18339;DHT22;9295;44.484;11.240;2023-03-03T08:15:18;9.80;99.90
18339;DHT22;9295;44.484;11.240;2023-03-03T08:17:49;9.90;99.90
18339;DHT22;9295;44.484;11.240;2023-03-03T08:20:41;9.90;99.90
18339;DHT22;9295;44.484;11.240;2023-03-03T08:23:10;10.00;99.90
18339;DHT22;9295;44.484;11.240;2023-03-03T08:25:39;10.10;99.90
18339;DHT22;9295;44.484;11.240;2023-03-03T08:28:10;10.10;99.90
18339;DHT22;9295;44.484;11.240;2023-03-03T08:30:39;10.20;99.90
18339;DHT22;9295;44.484;11.240;2023-03-03T08:33:07;10.20;99.90
18339;DHT22;9295;44.484;11.240;2023-03-03T08:35:36;10.30;99.90
18339;DHT22;9295;44.484;11.240;2023-03-03T08:38:05;10.30;99.90
18339;DHT22;9295;44.484;11.240;2023-03-03T08:40:34;10.30;99.90
18339;DHT22;9295;44.484;11.240;2023-03-03T08:43:03;10.30;99.90
18339;DHT22;9295;44.484;11.240;2023-03-03T08:45:34;10.30;99.90
18339;DHT22;9295;44.484;11.240;2023-03-03T08:48:03;10.30;99.90
18339;DHT22;9295;44.484;11.240;2023-03-03T08:50:32;10.40;99.90
18339;DHT22;9295;44.484;11.240;2023-03-03T08:53:01;10.50;99.90
18339;DHT22;9295;44.484;11.240;2023-03-03T08:55:30;10.60;99.90
18339;DHT22;9295;44.484;11.240;2023-03-03T08:58:02;10.70;99.90
18339;DHT22;9295;44.484;11.240;2023-03-03T09:00:32;10.80;99.90
18339;DHT22;9295;44.484;11.240;2023-03-03T09:03:01;10.90;99.90
18339;DHT22;9295;44.484;11.240;2023-03-03T09:05:30;10.90;99.90
18339;DHT22;9295;44.484;11.240;2023-03-03T09:07:59;11.00;99.90
18339;DHT22;9295;44.484;11.240;2023-03-03T09:10:28;11.10;99.90
18339;DHT22;9295;44.484;11.240;2023-03-03T09:13:02;11.20;99.90
18339;DHT22;9295;44.484;11.240;2023-03-03T09:15:35;11.30;99.90
18339;DHT22;9295;44.484;11.240;2023-03-03T09:18:13;11.30;99.90
18339;DHT22;9295;44.484;11.240;2023-03-03T09:20:43;11.40;99.90
18339;DHT22;9295;44.484;11.240;2023-03-03T09:23:28;11.40;99.90
18339;DHT22;9295;44.484;11.240;2023-03-03T09:26:04;11.50;99.90
18339;DHT22;9295;44.484;11.240;2023-03-03T09:28:41;11.50;99.90
18339;DHT22;9295;44.484;11.240;2023-03-03T09:31:24;11.80;99.90
18339;DHT22;9295;44.484;11.240;2023-03-03T09:33:53;11.90;99.90
18339;DHT22;9295;44.484;11.240;2023-03-03T09:36:26;12.00;99.90
18339;DHT22;9295;44.484;11.240;2023-03-03T09:38:56;12.20;99.90
18339;DHT22;9295;44.484;11.240;2023-03-03T09:51:10;12.50;99.90
18339;DHT22;9295;44.484;11.240;2023-03-03T09:53:56;12.70;99.90
18339;DHT22;9295;44.484;11.240;2023-03-03T09:56:32;12.80;99.90
18339;DHT22;9295;44.484;11.240;2023-03-03T09:59:11;13.00;99.90
18339;DHT22;9295;44.484;11.240;2023-03-03T10:01:50;13.10;99.90
18339;DHT22;9295;44.484;11.240;2023-03-03T10:04:39;13.20;99.90
18339;DHT22;9295;44.484;11.240;2023-03-03T10:07:21;13.10;99.90
18339;DHT22;9295;44.484;11.240;2023-03-03T10:10:10;13.20;99.90
18339;DHT22;9295;44.484;11.240;2023-03-03T10:12:50;13.20;99.90
18339;DHT22;9295;44.484;11.240;2023-03-03T10:15:31;13.10;99.90
18339;DHT22;9295;44.484;11.240;2023-03-03T10:18:14;13.10;99.90
18339;DHT22;9295;44.484;11.240;2023-03-03T10:21:03;13.10;99.90
18339;DHT22;9295;44.484;11.240;2023-03-03T10:23:51;13.00;99.90
18339;DHT22;9295;44.484;11.240;2023-03-03T10:26:44;13.00;99.90
18339;DHT22;9295;44.484;11.240;2023-03-03T10:29:41;13.10;99.90
18339;DHT22;9295;44.484;11.240;2023-03-03T10:32:45;13.10;99.90
18339;DHT22;9295;44.484;11.240;2023-03-03T10:35:28;13.10;99.90
18339;DHT22;9295;44.484;11.240;2023-03-03T10:38:18;13.00;99.90
18339;DHT22;9295;44.484;11.240;2023-03-03T10:40:53;12.90;99.90
18339;DHT22;9295;44.484;11.240;2023-03-03T10:43:37;12.80;99.90
18339;DHT22;9295;44.484;11.240;2023-03-03T10:46:19;12.80;99.90
18339;DHT22;9295;44.484;11.240;2023-03-03T10:49:13;12.80;99.90
18339;DHT22;9295;44.484;11.240;2023-03-03T10:51:58;12.70;99.90
18339;DHT22;9295;44.484;11.240;2023-03-03T10:54:42;12.70;99.90
18339;DHT22;9295;44.484;11.240;2023-03-03T10:57:18;12.80;99.90
18339;DHT22;9295;44.484;11.240;2023-03-03T11:00:02;12.90;99.90
18339;DHT22;9295;44.484;11.240;2023-03-03T11:02:36;13.00;99.90
18339;DHT22;9295;44.484;11.240;2023-03-03T11:05:28;13.10;99.90
18339;DHT22;9295;44.484;11.240;2023-03-03T11:08:03;13.20;99.90
18339;DHT22;9295;44.484;11.240;2023-03-03T11:10:47;13.20;99.90
18339;DHT22;9295;44.484;11.240;2023-03-03T11:13:22;13.30;99.90
18339;DHT22;9295;44.484;11.240;2023-03-03T11:19:04;13.20;99.90
18339;DHT22;9295;44.484;11.240;2023-03-03T11:21:40;13.10;99.90
18339;DHT22;9295;44.484;11.240;2023-03-03T11:24:22;13.00;99.90
18339;DHT22;9295;44.484;11.240;2023-03-03T11:27:11;13.10;99.90
18339;DHT22;9295;44.484;11.240;2023-03-03T11:29:52;13.10;99.90
18339;DHT22;9295;44.484;11.240;2023-03-03T11:32:26;13.10;99.90
18339;DHT22;9295;44.484;11.240;2023-03-03T11:35:12;13.10;99.90
18339;DHT22;9295;44.484;11.240;2023-03-03T11:37:52;13.10;99.90
18339;DHT22;9295;44.484;11.240;2023-03-03T11:40:26;13.00;99.90
18339;DHT22;9295;44.484;11.240;2023-03-03T11:43:02;13.00;99.90
18339;DHT22;9295;44.484;11.240;2023-03-03T11:45:39;13.00;99.90
18339;DHT22;9295;44.484;11.240;2023-03-03T11:48:15;13.00;99.90
18339;DHT22;9295;44.484;11.240;2023-03-03T11:50:52;13.00;99.90
18339;DHT22;9295;44.484;11.240;2023-03-03T11:53:29;13.00;99.90
18339;DHT22;9295;44.484;11.240;2023-03-03T11:56:02;13.00;99.90
18339;DHT22;9295;44.484;11.240;2023-03-03T11:58:39;13.10;99.90
18339;DHT22;9295;44.484;11.240;2023-03-03T12:01:16;13.00;99.90
18339;DHT22;9295;44.484;11.240;2023-03-03T12:03:48;13.10;99.90
18339;DHT22;9295;44.484;11.240;2023-03-03T12:06:25;13.20;99.90
18339;DHT22;9295;44.484;11.240;2023-03-03T12:09:23;13.20;99.90
18339;DHT22;9295;44.484;11.240;2023-03-03T12:11:54;13.20;99.90
18339;DHT22;9295;44.484;11.240;2023-03-03T12:14:38;13.10;99.90
18339;DHT22;9295;44.484;11.240;2023-03-03T12:17:17;13.00;99.90
18339;DHT22;9295;44.484;11.240;2023-03-03T12:19:53;12.70;99.90
18339;DHT22;9295;44.484;11.240;2023-03-03T12:22:30;12.50;99.90
18339;DHT22;9295;44.484;11.240;2023-03-03T12:25:22;12.50;99.90
18339;DHT22;9295;44.484;11.240;2023-03-03T12:27:57;12.40;99.90
18339;DHT22;9295;44.484;11.240;2023-03-03T12:30:40;12.50;99.90
18339;DHT22;9295;44.484;11.240;2023-03-03T12:33:21;12.70;99.90
18339;DHT22;9295;44.484;11.240;2023-03-03T12:36:03;13.00;99.90
18339;DHT22;9295;44.484;11.240;2023-03-03T12:38:39;12.80;99.90
18339;DHT22;9295;44.484;11.240;2023-03-03T12:41:17;13.00;99.90
18339;DHT22;9295;44.484;11.240;2023-03-03T12:43:55;13.10;99.90
18339;DHT22;9295;44.484;11.240;2023-03-03T12:46:34;13.10;99.90
18339;DHT22;9295;44.484;11.240;2023-03-03T12:49:07;13.00;99.90
18339;DHT22;9295;44.484;11.240;2023-03-03T12:51:41;13.10;99.90
18339;DHT22;9295;44.484;11.240;2023-03-03T12:54:46;13.20;99.90
18339;DHT22;9295;44.484;11.240;2023-03-03T12:57:23;13.30;99.90
18339;DHT22;9295;44.484;11.240;2023-03-03T13:00:14;13.30;99.90
18339;DHT22;9295;44.484;11.240;2023-03-03T13:02:55;13.20;99.90
18339;DHT22;9295;44.484;11.240;2023-03-03T13:05:30;13.20;99.90
18339;DHT22;9295;44.484;11.240;2023-03-03T13:11:11;13.60;99.90
18339;DHT22;9295;44.484;11.240;2023-03-03T13:13:51;13.70;99.90
18339;DHT22;9295;44.484;11.240;2023-03-03T13:16:24;13.70;99.90
18339;DHT22;9295;44.484;11.240;2023-03-03T13:19:10;13.70;99.90
18339;DHT22;9295;44.484;11.240;2023-03-03T13:21:47;13.60;99.90
18339;DHT22;9295;44.484;11.240;2023-03-03T13:24:22;13.70;99.90
18339;DHT22;9295;44.484;11.240;2023-03-03T13:26:54;13.10;99.90
18339;DHT22;9295;44.484;11.240;2023-03-03T13:29:26;12.60;99.90
18339;DHT22;9295;44.484;11.240;2023-03-03T13:32:00;12.30;99.90
18339;DHT22;9295;44.484;11.240;2023-03-03T13:34:40;12.70;99.90
18339;DHT22;9295;44.484;11.240;2023-03-03T13:37:14;13.10;99.90
18339;DHT22;9295;44.484;11.240;2023-03-03T13:39:55;13.10;99.90
18339;DHT22;9295;44.484;11.240;2023-03-03T13:42:31;13.00;99.90
18339;DHT22;9295;44.484;11.240;2023-03-03T13:45:05;13.10;99.90
18339;DHT22;9295;44.484;11.240;2023-03-03T13:47:39;13.30;99.90
18339;DHT22;9295;44.484;11.240;2023-03-03T13:50:19;13.30;99.90
18339;DHT22;9295;44.484;11.240;2023-03-03T13:53:10;13.30;99.90
18339;DHT22;9295;44.484;11.240;2023-03-03T13:55:53;13.40;99.90
18339;DHT22;9295;44.484;11.240;2023-03-03T13:58:30;13.60;99.90
18339;DHT22;9295;44.484;11.240;2023-03-03T14:01:08;13.80;99.90
18339;DHT22;9295;44.484;11.240;2023-03-03T14:04:04;13.90;99.90
18339;DHT22;9295;44.484;11.240;2023-03-03T14:06:35;14.00;99.90
18339;DHT22;9295;44.484;11.240;2023-03-03T14:09:16;13.90;99.90
18339;DHT22;9295;44.484;11.240;2023-03-03T14:11:53;13.90;99.90
18339;DHT22;9295;44.484;11.240;2023-03-03T14:14:40;14.00;99.90
18339;DHT22;9295;44.484;11.240;2023-03-03T14:17:17;13.80;99.90
18339;DHT22;9295;44.484;11.240;2023-03-03T14:19:56;13.80;99.90
18339;DHT22;9295;44.484;11.240;2023-03-03T14:22:37;13.80;99.90
18339;DHT22;9295;44.484;11.240;2023-03-03T14:25:10;13.60;99.90
18339;DHT22;9295;44.484;11.240;2023-03-03T14:27:58;13.10;99.90
18339;DHT22;9295;44.484;11.240;2023-03-03T14:30:33;13.30;99.90
18339;DHT22;9295;44.484;11.240;2023-03-03T14:33:18;13.70;99.90
18339;DHT22;9295;44.484;11.240;2023-03-03T14:38:53;14.20;99.90
18339;DHT22;9295;44.484;11.240;2023-03-03T14:41:36;14.10;99.90
18339;DHT22;9295;44.484;11.240;2023-03-03T14:44:24;14.00;99.90
18339;DHT22;9295;44.484;11.240;2023-03-03T14:47:16;13.70;99.90
18339;DHT22;9295;44.484;11.240;2023-03-03T14:49:46;13.50;99.90
18339;DHT22;9295;44.484;11.240;2023-03-03T14:52:23;13.30;99.90
18339;DHT22;9295;44.484;11.240;2023-03-03T14:54:54;13.20;99.90
18339;DHT22;9295;44.484;11.240;2023-03-03T14:57:38;13.20;99.90
18339;DHT22;9295;44.484;11.240;2023-03-03T15:00:31;13.20;99.90
18339;DHT22;9295;44.484;11.240;2023-03-03T15:03:21;13.40;99.90
18339;DHT22;9295;44.484;11.240;2023-03-03T15:05:50;13.50;99.90
18339;DHT22;9295;44.484;11.240;2023-03-03T15:08:27;13.50;99.90
18339;DHT22;9295;44.484;11.240;2023-03-03T15:11:12;13.40;99.90
18339;DHT22;9295;44.484;11.240;2023-03-03T15:13:41;13.40;99.90
18339;DHT22;9295;44.484;11.240;2023-03-03T15:16:15;13.50;99.90
18339;DHT22;9295;44.484;11.240;2023-03-03T15:19:09;13.60;99.90
18339;DHT22;9295;44.484;11.240;2023-03-03T15:21:48;13.60;99.90
18339;DHT22;9295;44.484;11.240;2023-03-03T15:24:24;13.70;99.90
18339;DHT22;9295;44.484;11.240;2023-03-03T15:27:00;13.50;99.90
18339;DHT22;9295;44.484;11.240;2023-03-03T15:29:34;13.10;99.90
18339;DHT22;9295;44.484;11.240;2023-03-03T15:32:07;13.00;99.90
18339;DHT22;9295;44.484;11.240;2023-03-03T15:34:42;13.30;99.90
18339;DHT22;9295;44.484;11.240;2023-03-03T15:37:22;13.50;99.90
18339;DHT22;9295;44.484;11.240;2023-03-03T15:39:57;13.60;99.90
18339;DHT22;9295;44.484;11.240;2023-03-03T15:42:36;13.60;99.90
18339;DHT22;9295;44.484;11.240;2023-03-03T15:45:16;13.40;99.90
18339;DHT22;9295;44.484;11.240;2023-03-03T15:48:05;13.40;99.90
18339;DHT22;9295;44.484;11.240;2023-03-03T15:50:44;13.40;99.90
18339;DHT22;9295;44.484;11.240;2023-03-03T15:53:39;13.30;99.90
18339;DHT22;9295;44.484;11.240;2023-03-03T15:56:19;13.20;99.90
18339;DHT22;9295;44.484;11.240;2023-03-03T16:02:12;12.60;99.90
18339;DHT22;9295;44.484;11.240;2023-03-03T16:04:50;12.60;99.90
18339;DHT22;9295;44.484;11.240;2023-03-03T16:07:35;12.60;99.90
18339;DHT22;9295;44.484;11.240;2023-03-03T16:10:23;12.80;99.90
18339;DHT22;9295;44.484;11.240;2023-03-03T16:12:59;12.80;99.90
18339;DHT22;9295;44.484;11.240;2023-03-03T16:15:40;12.80;99.90
18339;DHT22;9295;44.484;11.240;2023-03-03T16:18:17;12.30;99.90
18339;DHT22;9295;44.484;11.240;2023-03-03T16:20:58;11.90;99.90
18339;DHT22;9295;44.484;11.240;2023-03-03T16:23:38;12.00;99.90
18339;DHT22;9295;44.484;11.240;2023-03-03T16:26:13;12.10;99.90
18339;DHT22;9295;44.484;11.240;2023-03-03T16:29:13;12.20;99.90
18339;DHT22;9295;44.484;11.240;2023-03-03T16:31:49;12.20;99.90
18339;DHT22;9295;44.484;11.240;2023-03-03T16:34:24;12.10;99.90
18339;DHT22;9295;44.484;11.240;2023-03-03T16:37:00;11.60;99.90
18339;DHT22;9295;44.484;11.240;2023-03-03T16:39:39;11.60;99.90
18339;DHT22;9295;44.484;11.240;2023-03-03T16:42:18;11.50;99.90
18339;DHT22;9295;44.484;11.240;2023-03-03T16:44:57;11.50;99.90
18339;DHT22;9295;44.484;11.240;2023-03-03T16:47:37;11.30;99.90
18339;DHT22;9295;44.484;11.240;2023-03-03T16:50:15;11.20;99.90
18339;DHT22;9295;44.484;11.240;2023-03-03T16:52:49;11.20;99.90